x

Nantucket Sound (44020) Wave Buoy

5:50 - Fri 26th Dec 2014 All times are EST. -5 hours from GMT.

  • Sig Wave height 0.7ft
  • Average Period 3s
  • Wind
    9mph, 11mph gusts
  • Sea Temp 45°f
  • Air Temp 45°f
  • Sea Pressure 1020.7mb
  • Nantucket Sound
  • Nantucket Sound

More Historic Weather Station data

Upgrade to MSW Pro to gain access to the past 30 days of data for over 8000 Wavebouys and Weather Stations around the globe.

Join Pro

Comparision Forecast

View Surf forecast
   
ven. 12/26 5:50 0.7ft  -  3s 9 11 mph 1020.7mb 45f 45f
4:50 0.7ft  -  3s 7
mph
1020.2mb 45f 44f
3:50 0.7ft  -  3s 9
mph
1020.3mb 44f 45f
2:50 1ft 9s 4s 7 9 mph 1020mb 44f 45f
1:50 1ft 8s 3s 11 13 mph 1019.9mb 44f 45f
12:50 1ft 3s 3s 13 16 mph 1019.9mb 44f 44f
11:50 1.6ft 3s 3s 16 18 mph 1019.9mb 44f 44f
10:50 2ft 3s 3s 18 20 mph 1021.3mb 44f 44f
9:50 1.6ft 3s 3s 20 22 mph 1021.6mb 45f 44f
8:50 1.6ft 3s 3s 20 22 mph 1021.4mb 45f 44f
7:50 1.6ft 4s 3s 18 20 mph 1020.7mb 44f 44f
6:50 1.6ft 4s 3s 16 20 mph 1019.8mb 44f 44f
5:50 1.6ft 4s 3s 18 20 mph 1019.1mb 44f 44f
4:50 1.6ft 4s 4s 18 20 mph 1018.8mb 44f 44f
3:50 1.6ft 4s 4s 18 22 mph 1017.8mb 44f 44f
2:50 2ft 3s 4s 20 25 mph 1017.7mb 44f 45f
1:50 2ft 3s 3s 20 25 mph 1017mb 44f 45f
12:50 2ft 3s 3s 18 22 mph 1015.7mb 44f 46f
jeu. 12/25 11:50 1.6ft 3s 3s 20 22 mph 1014.8mb 44f 46f
10:50 2ft 3s 3s 18 22 mph 1014.5mb 45f 46f
9:50 1.6ft 3s 3s 20 22 mph 1014mb 45f 46f
8:50 1.6ft 3s 3s 16 20 mph 1013.3mb 46f 47f
7:50 1.6ft 4s 3s 16 18 mph 1012.3mb 46f 47f
6:50 2.5ft 4s 4s 16 18 mph 1011mb 46f 47f
5:50 2ft 4s 4s 20 22 mph 1009.4mb 46f 48f
4:50 1.6ft 4s 4s 20 22 mph 1007.7mb 46f 48f
3:50 2ft 4s 4s 16 18 mph 1006.5mb 45f 48f
2:50 2ft 4s 4s 18 20 mph 1004.8mb 44f 48f
1:50 2ft 4s 4s 16 18 mph 1003.1mb 44f 48f
12:50 2.5ft 4s 4s 18 20 mph 1002.1mb 44f 47f
11:50 2ft 4s 3s 22 27 mph 1001.8mb 44f 49f
10:50 1.6ft 3s 3s 22 27 mph 1002.3mb 45f 50f
9:50 1.6ft 3s 3s 18 20 mph 1002mb 45f 49f
8:50 2ft 3s 3s 16 20 mph 1002.5mb 46f 49f
7:50 2.5ft 3s 3s 18 20 mph 1002.1mb 46f 51f
6:50 2.5ft 3s 3s 20 25 mph 1001mb 46f 53f
5:50 2.5ft 3s 3s 22 27 mph 1000.9mb 46f 54f
4:50 2.5ft 3s 3s 18 22 mph 1000.7mb 46f 53f
3:50 2.5ft 3s 3s 20 29 mph 1001.5mb 45f 54f
2:50 2.5ft 4s 4s 16 18 mph 1002mb 45f 52f
1:50 3ft 4s 4s 20 25 mph 1002.1mb 45f 53f
12:50 4ft 4s 4s 22 27 mph 1002.4mb 45f 53f
mer. 12/24 11:50 3.5ft 4s 4s 27 34 mph 1002.2mb 45f 55f
10:50 2.5ft 4s 4s 31 38 mph 1003mb 45f 57f
9:50 2.5ft 4s 4s 27 31 mph 1005.2mb 46f 55f
8:50 2.5ft 4s 4s 25 29 mph 1006.1mb 46f 55f
7:50 2.5ft 4s 3s 27 38 mph 1007.1mb 46f 56f
6:50 3ft 3s 4s 25 29 mph 1007.7mb 46f 55f
5:50 2.5ft 3s 3s 25 29 mph 1008.2mb 46f 55f
4:50 1.6ft 8s 4s 20 22 mph 1008.9mb 46f 53f
3:50 1.3ft 8s 5s 13
mph
1010.2mb 45f 49f
2:50 1.6ft 8s 4s 9
mph
1011.2mb 45f 49f
1:50 2ft 8s 4s 4
mph
1011.9mb 44f 46f
12:50 2ft 7s 4s 7
mph
1013mb 44f 46f
11:50 1.6ft 8s 5s 2
mph
1013.9mb 44f 46f
10:50 1.3ft 8s 4s 7 9 mph 1014.6mb 44f 46f
9:50 1.3ft 4s 4s 7 9 mph 1016.1mb 45f 46f
8:50 1.3ft 3s 4s 7 9 mph 1016.3mb 45f 47f
7:50 1.6ft 4s 4s 11 13 mph 1016.6mb 46f 47f
6:50 1.6ft 3s 4s 11 13 mph 1017.2mb 46f 47f
5:50 2ft 5s 4s 16 18 mph 1016.4mb 46f 47f
4:50 2ft 4s 4s 16 18 mph 1016.6mb 45f 47f
3:50 2.5ft 8s 4s 16 18 mph 1016.9mb 45f 47f
2:50 2.5ft 4s 4s 13 18 mph 1017.2mb 45f 47f
1:50 2.5ft 4s 4s 16 18 mph 1017mb 44f 47f
12:50 3ft 8s 4s 18 20 mph 1017.5mb 44f 46f
mar. 12/23 11:50 2.5ft 7s 4s 16 20 mph 1018.2mb 44f 46f
10:50 2ft 4s 4s 13 16 mph 1018.5mb 44f 46f
9:50 2ft 4s 4s 18 20 mph 1018.7mb 45f 47f
8:50 1.6ft 3s 4s 16 18 mph 1018.7mb 45f 48f
7:50 1.6ft 4s 4s 16 20 mph 1018.7mb 46f 47f
6:50 1.6ft 4s 4s 13 16 mph 1019.5mb 46f 47f
5:50 2ft 4s 3s 13 16 mph 1019.1mb 46f 47f
4:50 2ft 5s 4s 16 18 mph 1018.8mb 46f 47f
3:50 2ft 8s 4s 18 20 mph 1018.9mb 45f 47f
2:50 2.5ft 4s 4s 13
mph
1019.6mb 45f 47f
1:50 2.5ft 8s 4s 13 16 mph 1019.4mb 44f 47f
12:50 2.5ft 8s 4s 18 20 mph 1019mb 44f 47f
11:50 2.5ft 8s 4s 18 20 mph 1019.7mb 44f 46f
10:50 2ft 8s 4s 16 18 mph 1021.4mb 44f 46f
9:50 2ft 3s 4s 13 16 mph 1022.5mb 44f 45f
8:50 1.6ft 3s 4s 16 18 mph 1023mb 44f 45f
7:50 2ft 4s 4s 16 20 mph 1023mb 45f 45f
6:50 2.5ft 4s 4s 18 20 mph 1022.8mb 45f 45f
5:50 3ft 4s 4s 18 22 mph 1022.8mb 45f 46f
4:50 2.5ft 4s 4s 22 27 mph 1021.6mb 45f 46f
3:50 2.5ft 4s 4s 18 22 mph 1022.6mb 45f 46f
2:50 2.5ft 4s 4s 18 20 mph 1023.4mb 44f 45f
1:50 2.5ft 4s 4s 16 20 mph 1023.9mb 44f 44f
12:50 2.5ft 4s 4s 16 18 mph 1023.7mb 43f 44f
lun. 12/22 11:50 2.5ft 4s 4s 16 20 mph 1024.2mb 43f 44f